Daniel Field
KDNL : now visible

Airfield :











YOU CAN JOIN US ON...

 
LOGIN :

Register | Disclaimer

   EN    FR    IT 

 









Legend :    VFR   Marginal VFR   IFR   Intensive IFR   Very Intensive IFR
Visi :
Ceiling :
>= 8 km
>= 3000ft
5 to 8 km
1000 to 3000 ft
1500m to 5 km
500 to 1000 ft
800 to 1500m
200 to 500 ft
< 800m
< 200 ft
Symbols :   Thunderstorms  Fog  Heavy snow  Heavy precipitations  Wind > 20 kt






- Airport Elevation : 423 ft


KDNL - Daniel Field

CURRENT METAR :
  • 082053Z AUTO 09006KT 10SM CLR 16/01 A3027 RMK AO2 SLP248 T01560006 55018 TSNO

EXPIRED METARs :
  • 081953Z AUTO 07008KT 10SM CLR 16/00 A3026 RMK AO2 SLP247 T01560000 TSNO
  • 081853Z AUTO VRB05KT 10SM CLR 15/M01 A3030 RMK AO2 SLP258 T01501006 TSNO

TAF KDNL
Valid from the 08 at 21:00 until the 09 at 18:00 UTC


082052Z 0821/0918 07008KT P6SM BKN060
FM090300 04005KT P6SM SCT025 BKN050
FM090900 04004KT 6SM BR SCT008 OVC012 WS020/20035KT
FM091200 VRB03KT 6SM BR BKN007 OVC015 WS020/20040KT



MET'MAP, your aeronautical weather chart ! - Copyright ORBIFLY December 2007 - Disclaimer

ORBIFLY MET'MAP TEAM :

Programming & Development : Alexandra Zaïnal
Concept & original design : Baudouin d'Aumeries
Assistance for programming : Marc-Olivier Méhu
Technical & hardware support : Manuel Goepfert

Contact : metmap@orbifly.com




SOURCES & CREDITS :

   NOAA       Earth
Advisory